Time;durP1;ratioP1;P1;durP2;ratioP2;P2;SDS_P1;SDS_P2;PMS_P1;PMS_P2;Temp;Humidity;BMP_temperature;BMP_pressure;BME280_temperature;BME280_humidity;BME280_pressure;Samples;Min_cycle;Max_cycle;Signal;HPM_P1;HPM_P2
2022/04/16 00:01:52;;;;;;;4.03;3.85;;;9.10;93.30;;;;;;4172662;28;20049;-83
2022/04/16 00:03:55;;;;;;;2.97;2.88;;;8.90;94.00;;;;;;4168967;28;20037;-83
2022/04/16 00:05:57;;;;;;;4.15;4.05;;;8.80;94.90;;;;;;4162894;28;20076;-83
2022/04/16 00:08:08;;;;;;;4.28;3.97;;;8.80;95.10;;;;;;4153546;28;20045;-83
2022/04/16 00:10:10;;;;;;;2.53;2.30;;;8.80;95.80;;;;;;4172143;28;20137;-83
2022/04/16 00:12:13;;;;;;;4.00;3.72;;;8.80;95.50;;;;;;4168714;28;20072;-84
2022/04/16 00:14:15;;;;;;;2.70;2.60;;;9.00;96.60;;;;;;4148154;28;20045;-83
2022/04/16 00:16:17;;;;;;;1.60;1.60;;;9.00;94.60;;;;;;4153432;28;20076;-83
2022/04/16 00:18:20;;;;;;;1.92;1.45;;;8.80;93.80;;;;;;4171638;28;20588;-83
2022/04/16 00:20:25;;;;;;;1.83;1.80;;;8.80;93.20;;;;;;4176666;28;20045;-83
2022/04/16 00:22:27;;;;;;;3.33;2.22;;;8.80;93.30;;;;;;4163670;28;20464;-84
2022/04/16 00:24:29;;;;;;;2.33;1.70;;;8.80;93.80;;;;;;4160758;28;20064;-83
2022/04/16 00:26:32;;;;;;;2.10;2.00;;;8.80;94.10;;;;;;4162207;28;20041;-83
2022/04/16 00:28:35;;;;;;;2.80;2.67;;;8.60;95.80;;;;;;4151327;28;20521;-83
2022/04/16 00:30:38;;;;;;;2.03;1.92;;;8.60;96.00;;;;;;4174671;28;20045;-83
2022/04/16 00:32:40;;;;;;;3.45;2.42;;;8.60;95.00;;;;;;4160882;28;20038;-83
2022/04/16 00:34:42;;;;;;;2.75;2.28;;;8.70;95.20;;;;;;4161963;28;20075;-83
2022/04/16 00:36:44;;;;;;;3.00;2.75;;;8.60;96.40;;;;;;4161939;28;20409;-83
2022/04/16 00:38:46;;;;;;;4.38;4.25;;;8.50;98.20;;;;;;4161828;28;20046;-83
2022/04/16 00:40:48;;;;;;;7.78;4.00;;;8.40;99.30;;;;;;4160369;28;20033;-83
2022/04/16 00:42:51;;;;;;;4.28;3.78;;;8.30;99.90;;;;;;4145817;28;20140;-83
2022/04/16 00:44:53;;;;;;;;;;;8.30;99.90;;;;;;4165793;28;20045;-83
2022/04/16 00:46:55;;;;;;;3.25;2.90;;;8.20;99.90;;;;;;4160426;28;19928;-83
2022/04/16 00:48:57;;;;;;;3.95;3.13;;;8.20;99.90;;;;;;4162064;28;20160;-83
2022/04/16 00:50:59;;;;;;;3.10;3.00;;;8.20;99.90;;;;;;4165320;28;20160;-83
2022/04/16 00:53:02;;;;;;;2.50;2.40;;;8.10;99.90;;;;;;4160462;28;20546;-83
2022/04/16 00:55:06;;;;;;;;;;;8.10;99.90;;;;;;4160478;28;20116;-83
2022/04/16 00:57:08;;;;;;;3.25;2.30;;;8.00;99.90;;;;;;4161940;28;19921;-83
2022/04/16 00:59:10;;;;;;;3.40;3.10;;;7.90;99.90;;;;;;4159591;28;20052;-83
2022/04/16 01:01:12;;;;;;;2.70;2.50;;;7.90;99.90;;;;;;4161492;28;20124;-83
2022/04/16 01:03:14;;;;;;;3.65;3.17;;;7.90;99.90;;;;;;4160977;28;20041;-83
2022/04/16 01:05:19;;;;;;;3.13;2.88;;;7.80;99.90;;;;;;4161580;28;20037;-83
2022/04/16 01:07:25;;;;;;;1.88;1.70;;;7.80;99.90;;;;;;4164398;28;20049;-83
2022/04/16 01:09:29;;;;;;;2.65;2.45;;;7.90;99.90;;;;;;4174762;28;20111;-83
2022/04/16 01:11:32;;;;;;;5.00;2.03;;;7.90;99.90;;;;;;4176377;28;20405;-83
2022/04/16 01:13:36;;;;;;;;;;;7.80;99.90;;;;;;4160335;28;20072;-83
2022/04/16 01:15:39;;;;;;;2.47;2.00;;;7.80;99.90;;;;;;4158481;28;19932;-83
2022/04/16 01:17:41;;;;;;;1.85;1.75;;;7.80;99.90;;;;;;4155694;28;20045;-83
2022/04/16 01:19:44;;;;;;;1.55;1.45;;;7.80;99.90;;;;;;4165884;28;20092;-83
2022/04/16 01:21:46;;;;;;;1.75;1.33;;;7.60;99.90;;;;;;4161530;28;20072;-83
2022/04/16 01:23:49;;;;;;;1.65;1.65;;;7.60;99.90;;;;;;4158224;28;20125;-83
2022/04/16 01:25:51;;;;;;;3.45;1.67;;;7.70;99.90;;;;;;4171510;28;20052;-83
2022/04/16 01:27:54;;;;;;;2.05;2.05;;;7.60;99.90;;;;;;4162335;28;20493;-83
2022/04/16 01:29:57;;;;;;;1.75;1.73;;;7.70;99.90;;;;;;4159659;28;20029;-83
2022/04/16 01:31:59;;;;;;;1.58;1.58;;;7.70;99.90;;;;;;4159817;28;20465;-83
2022/04/16 01:34:03;;;;;;;4.75;2.33;;;7.80;99.90;;;;;;4159363;28;20505;-83
2022/04/16 01:36:05;;;;;;;2.28;2.15;;;7.80;99.90;;;;;;4159682;28;20520;-83
2022/04/16 01:38:08;;;;;;;2.25;1.92;;;7.90;99.90;;;;;;4160586;28;20071;-83
2022/04/16 01:40:12;;;;;;;2.22;2.03;;;7.80;99.90;;;;;;4160878;28;20172;-83
2022/04/16 01:42:15;;;;;;;3.90;2.33;;;7.80;99.90;;;;;;4159476;28;20103;-83
2022/04/16 01:44:17;;;;;;;1.98;1.88;;;7.70;99.90;;;;;;4164082;28;20128;-83
2022/04/16 01:46:19;;;;;;;3.35;2.30;;;7.80;99.90;;;;;;4160984;28;20065;-83
2022/04/16 01:48:21;;;;;;;1.45;1.45;;;7.90;99.90;;;;;;4159035;28;20037;-82
2022/04/16 01:50:23;;;;;;;1.30;1.30;;;7.90;99.90;;;;;;4167736;28;20632;-83
2022/04/16 01:52:26;;;;;;;1.92;1.75;;;7.90;99.90;;;;;;4143410;28;20575;-83
2022/04/16 01:54:29;;;;;;;2.85;2.75;;;8.00;99.90;;;;;;4159099;28;20429;-83
2022/04/16 01:56:31;;;;;;;2.88;2.67;;;7.90;99.90;;;;;;4158818;28;20041;-83
2022/04/16 01:58:33;;;;;;;2.38;2.38;;;7.70;99.90;;;;;;4160353;28;20069;-83
2022/04/16 02:00:35;;;;;;;3.20;3.10;;;7.40;99.90;;;;;;4150292;28;20041;-83
2022/04/16 02:02:37;;;;;;;;;;;7.30;99.90;;;;;;4173854;28;20095;-83
2022/04/16 02:04:40;;;;;;;2.35;2.35;;;7.00;99.90;;;;;;4160238;28;19924;-83
2022/04/16 02:06:41;;;;;;;3.80;2.67;;;7.00;99.90;;;;;;4160771;28;20041;-83
2022/04/16 02:08:44;;;;;;;3.30;3.00;;;7.00;99.90;;;;;;4172468;28;20128;-83
2022/04/16 02:10:46;;;;;;;;;;;7.00;99.90;;;;;;4161799;28;20120;-83
2022/04/16 02:12:48;;;;;;;3.45;3.00;;;6.80;99.90;;;;;;4161203;28;20364;-83
2022/04/16 02:14:50;;;;;;;;;;;6.80;99.90;;;;;;4165692;28;20045;-83
2022/04/16 02:16:53;;;;;;;2.70;2.50;;;6.80;99.90;;;;;;4160468;28;19925;-83
2022/04/16 02:18:55;;;;;;;3.40;3.20;;;6.90;99.90;;;;;;4168317;28;20030;-83
2022/04/16 02:20:57;;;;;;;2.70;2.60;;;6.90;99.90;;;;;;4154964;28;20569;-83
2022/04/16 02:22:59;;;;;;;2.95;2.85;;;7.00;99.90;;;;;;4175592;28;20067;-83
2022/04/16 02:25:05;;;;;;;2.67;2.58;;;7.00;99.90;;;;;;4158905;28;20049;-83
2022/04/16 02:27:07;;;;;;;3.28;2.50;;;7.00;99.90;;;;;;4158916;28;20569;-83
2022/04/16 02:29:09;;;;;;;2.53;2.30;;;6.80;99.90;;;;;;4158798;28;20069;-83
2022/04/16 02:31:11;;;;;;;3.38;2.60;;;6.80;99.90;;;;;;4159058;28;20042;-83
2022/04/16 02:33:13;;;;;;;2.17;2.17;;;6.90;99.90;;;;;;4158976;28;20588;-82
2022/04/16 02:35:16;;;;;;;2.67;1.83;;;7.00;99.90;;;;;;4160077;28;20120;-83
2022/04/16 02:37:19;;;;;;;2.78;2.67;;;6.90;99.90;;;;;;4160224;28;20041;-82
2022/04/16 02:39:20;;;;;;;2.55;2.47;;;6.70;99.90;;;;;;4158902;28;20065;-83
2022/04/16 02:41:23;;;;;;;2.20;2.20;;;6.60;99.90;;;;;;4160366;28;20132;-83
2022/04/16 02:43:25;;;;;;;3.70;2.78;;;6.50;99.90;;;;;;4161617;28;20037;-83
2022/04/16 02:47:49;;;;;;;2.08;2.08;;;6.50;99.90;;;;;;4160264;28;20137;-83
2022/04/16 02:49:52;;;;;;;1.83;1.83;;;6.70;99.90;;;;;;4174066;28;20064;-83
2022/04/16 02:51:55;;;;;;;3.28;2.92;;;6.80;99.90;;;;;;4163263;28;20157;-83
2022/04/16 02:53:58;;;;;;;2.40;2.33;;;6.90;99.90;;;;;;4158924;28;20124;-83
2022/04/16 02:56:00;;;;;;;2.42;2.42;;;6.80;99.90;;;;;;4158572;28;20080;-83
2022/04/16 02:58:03;;;;;;;2.28;2.28;;;6.90;99.90;;;;;;4158666;28;20041;-83
2022/04/16 03:00:06;;;;;;;1.83;1.83;;;7.00;99.90;;;;;;4161298;28;20107;-83
2022/04/16 03:02:11;;;;;;;1.60;1.60;;;7.00;99.90;;;;;;4168671;28;20037;-83
2022/04/16 03:04:13;;;;;;;2.47;2.38;;;7.10;99.90;;;;;;4158613;28;20076;-83
2022/04/16 03:06:15;;;;;;;2.13;2.13;;;7.00;99.90;;;;;;4159134;28;20033;-83
2022/04/16 03:08:17;;;;;;;1.75;1.75;;;7.10;99.90;;;;;;4161567;28;20688;-83
2022/04/16 03:10:19;;;;;;;1.60;1.50;;;7.20;99.90;;;;;;4163275;28;20072;-82
2022/04/16 03:12:21;;;;;;;2.22;2.15;;;7.30;99.90;;;;;;4163362;28;20103;-82
2022/04/16 03:19:04;;;;;;;1.40;1.40;;;7.10;99.90;;;;;;4176488;28;20076;-83
2022/04/16 03:21:06;;;;;;;1.45;1.40;;;7.20;99.90;;;;;;4168153;28;20033;-83
2022/04/16 03:23:09;;;;;;;1.70;1.60;;;7.20;99.90;;;;;;4161954;28;20038;-83
2022/04/16 03:25:12;;;;;;;1.80;1.80;;;7.20;99.90;;;;;;4162739;28;20037;-83
2022/04/16 03:27:15;;;;;;;1.83;1.73;;;7.30;99.90;;;;;;4162881;28;20049;-83
2022/04/16 03:29:17;;;;;;;1.77;1.77;;;7.10;99.90;;;;;;4161638;28;20041;-83
2022/04/16 03:31:19;;;;;;;2.28;2.28;;;7.00;99.90;;;;;;4161998;28;20046;-83
2022/04/16 03:33:21;;;;;;;3.40;2.33;;;6.90;99.90;;;;;;4162663;28;20132;-83
2022/04/16 03:35:26;;;;;;;2.38;1.88;;;6.90;99.90;;;;;;4162698;28;20068;-83
2022/04/16 03:37:28;;;;;;;1.88;1.88;;;6.90;99.90;;;;;;4164019;28;20072;-82
2022/04/16 03:39:30;;;;;;;4.43;2.13;;;6.90;99.90;;;;;;4161124;28;20124;-83
2022/04/16 03:41:32;;;;;;;2.40;2.30;;;7.00;99.90;;;;;;4162725;28;20183;-83
2022/04/16 03:43:34;;;;;;;2.50;2.03;;;7.00;99.90;;;;;;4162738;28;20538;-83
2022/04/16 03:45:37;;;;;;;2.97;2.88;;;6.70;99.90;;;;;;4162446;28;20124;-83
2022/04/16 03:47:39;;;;;;;2.55;2.53;;;6.40;99.90;;;;;;4161116;28;20491;-83
2022/04/16 03:49:41;;;;;;;2.75;2.67;;;6.40;99.90;;;;;;4166108;28;20492;-82
2022/04/16 03:51:44;;;;;;;3.03;3.00;;;6.20;99.90;;;;;;4165597;28;20041;-83
2022/04/16 03:53:46;;;;;;;2.85;2.78;;;6.00;99.90;;;;;;4161175;28;20046;-83
2022/04/16 04:00:30;;;;;;;2.58;2.58;;;6.00;99.90;;;;;;4164976;28;20057;-83
2022/04/16 04:02:38;;;;;;;2.65;2.55;;;6.10;99.90;;;;;;4160875;28;20065;-82
2022/04/16 04:04:43;;;;;;;2.70;2.60;;;6.20;99.90;;;;;;4173753;28;20109;-84
2022/04/16 04:06:45;;;;;;;2.75;2.55;;;6.10;99.90;;;;;;4162387;28;20038;-83
2022/04/16 04:08:47;;;;;;;2.78;2.78;;;6.10;99.90;;;;;;4168036;28;20049;-83
2022/04/16 04:10:49;;;;;;;2.72;2.63;;;6.10;99.90;;;;;;4161057;28;20121;-83
2022/04/16 04:12:51;;;;;;;3.28;2.45;;;6.20;99.90;;;;;;4162434;28;20057;-83
2022/04/16 04:14:53;;;;;;;2.35;2.22;;;6.20;99.90;;;;;;4161106;28;20053;-83
2022/04/16 04:16:55;;;;;;;2.95;2.95;;;6.10;99.90;;;;;;4162768;28;20053;-83
2022/04/16 04:18:57;;;;;;;2.88;2.75;;;6.10;99.90;;;;;;4163915;28;20076;-83
2022/04/16 04:20:59;;;;;;;3.60;2.58;;;6.00;99.90;;;;;;4160716;28;20505;-83
2022/04/16 04:23:03;;;;;;;2.85;2.75;;;6.00;99.90;;;;;;4162546;28;20059;-83
2022/04/16 04:25:06;;;;;;;4.53;2.50;;;6.00;99.90;;;;;;4160950;28;20054;-83
2022/04/16 04:27:08;;;;;;;3.90;3.00;;;6.00;99.90;;;;;;4163625;28;20095;-83
2022/04/16 04:29:10;;;;;;;2.22;2.17;;;6.10;99.90;;;;;;4162836;28;20049;-82
2022/04/16 04:31:12;;;;;;;2.03;2.03;;;6.20;99.90;;;;;;4178547;28;20733;-83
2022/04/16 04:33:14;;;;;;;2.20;2.15;;;6.40;99.90;;;;;;4166993;28;20069;-83
2022/04/16 04:35:16;;;;;;;2.22;2.22;;;6.60;99.90;;;;;;4163260;28;20053;-83
2022/04/16 04:37:18;;;;;;;1.80;1.80;;;6.60;99.90;;;;;;4163731;28;20128;-82
2022/04/16 04:39:20;;;;;;;1.85;1.85;;;6.80;99.90;;;;;;4161370;28;20056;-83
2022/04/16 04:41:22;;;;;;;2.22;2.03;;;6.80;99.90;;;;;;4162957;28;20054;-83
2022/04/16 04:43:25;;;;;;;2.20;2.08;;;6.80;99.90;;;;;;4163710;28;20805;-83
2022/04/16 04:45:27;;;;;;;1.55;1.55;;;6.70;99.90;;;;;;4163212;28;20053;-83
2022/04/16 04:47:29;;;;;;;2.03;1.92;;;6.80;99.90;;;;;;4161394;28;20054;-83
2022/04/16 04:49:31;;;;;;;2.00;2.00;;;7.00;99.90;;;;;;4165177;28;20072;-83
2022/04/16 04:51:37;;;;;;;6.00;1.75;;;7.10;99.90;;;;;;4164861;28;20059;-83
2022/04/16 04:53:39;;;;;;;2.33;2.33;;;7.00;99.90;;;;;;4162148;28;20052;-83
2022/04/16 04:55:41;;;;;;;2.67;2.10;;;6.80;99.90;;;;;;4160444;28;20045;-83
2022/04/16 04:57:43;;;;;;;2.47;1.98;;;6.70;99.90;;;;;;4180011;28;20056;-83
2022/04/16 04:59:45;;;;;;;2.90;2.90;;;6.70;99.90;;;;;;4161643;28;20060;-83
2022/04/16 05:01:47;;;;;;;3.00;2.90;;;6.50;99.90;;;;;;4160278;28;20056;-82
2022/04/16 05:03:49;;;;;;;2.10;2.10;;;6.30;99.90;;;;;;4161831;28;20463;-83
2022/04/16 05:05:51;;;;;;;1.90;1.90;;;6.40;99.90;;;;;;4161305;28;20041;-83
2022/04/16 05:07:53;;;;;;;2.13;2.13;;;6.60;99.90;;;;;;4169459;28;20724;-83
2022/04/16 05:09:55;;;;;;;2.60;2.47;;;6.80;99.90;;;;;;4176363;28;20045;-83
2022/04/16 05:11:57;;;;;;;3.08;2.55;;;6.70;99.90;;;;;;4173718;28;20045;-83
2022/04/16 05:13:59;;;;;;;2.25;2.22;;;6.80;99.90;;;;;;4162399;28;20051;-83
2022/04/16 05:16:01;;;;;;;2.05;2.05;;;7.00;99.90;;;;;;4162753;28;20045;-83
2022/04/16 05:18:06;;;;;;;2.13;1.92;;;6.90;99.90;;;;;;4164167;28;20052;-83
2022/04/16 05:20:09;;;;;;;3.13;2.05;;;6.90;99.90;;;;;;4161024;28;20049;-82
2022/04/16 05:22:11;;;;;;;2.05;2.05;;;7.00;99.90;;;;;;4161697;28;20128;-83
2022/04/16 05:24:13;;;;;;;2.33;2.22;;;7.00;99.90;;;;;;4160095;28;20060;-83
2022/04/16 05:26:15;;;;;;;3.40;3.30;;;7.10;99.90;;;;;;4161121;28;20405;-83
2022/04/16 05:28:18;;;;;;;2.33;1.75;;;7.10;99.90;;;;;;4161187;28;20089;-83
2022/04/16 05:30:29;;;;;;;2.22;1.85;;;7.30;99.90;;;;;;4160118;28;20049;-83
2022/04/16 05:32:35;;;;;;;2.67;2.20;;;7.40;99.90;;;;;;4162650;28;20057;-83
2022/04/16 05:34:38;;;;;;;1.98;1.98;;;7.40;99.90;;;;;;4153727;28;20061;-83
2022/04/16 05:36:40;;;;;;;2.33;2.13;;;7.40;99.90;;;;;;4172899;28;20786;-83
2022/04/16 05:38:42;;;;;;;2.05;1.90;;;7.30;99.90;;;;;;4170756;28;20061;-83
2022/04/16 05:40:44;;;;;;;2.45;2.45;;;7.30;99.90;;;;;;4161017;28;20504;-83
2022/04/16 05:42:46;;;;;;;2.15;2.00;;;7.20;99.90;;;;;;4160946;28;20045;-83
2022/04/16 05:44:48;;;;;;;2.63;2.10;;;7.20;99.90;;;;;;4164185;28;20060;-83
2022/04/16 05:46:51;;;;;;;4.43;1.90;;;7.40;99.90;;;;;;4160725;28;20099;-83
2022/04/16 05:48:53;;;;;;;2.22;2.03;;;7.50;99.90;;;;;;4160959;28;20053;-83
2022/04/16 05:50:58;;;;;;;2.00;1.90;;;7.60;99.90;;;;;;4172500;28;20055;-82
2022/04/16 05:53:00;;;;;;;1.88;1.88;;;7.90;99.90;;;;;;4171387;28;20437;-83
2022/04/16 05:55:03;;;;;;;1.92;1.92;;;8.00;99.90;;;;;;4160372;28;20049;-83
2022/04/16 05:57:07;;;;;;;1.85;1.85;;;8.20;99.90;;;;;;4162297;28;20098;-83
2022/04/16 05:59:09;;;;;;;1.50;1.50;;;8.30;99.90;;;;;;4160351;28;20057;-83
2022/04/16 06:01:12;;;;;;;1.50;1.45;;;8.40;99.90;;;;;;4176021;28;20049;-83
2022/04/16 06:03:14;;;;;;;1.95;1.80;;;8.70;99.90;;;;;;4161727;28;20041;-83
2022/04/16 06:05:16;;;;;;;1.83;1.40;;;9.00;99.90;;;;;;4159137;28;20103;-83
2022/04/16 06:07:19;;;;;;;;;;;9.00;99.90;;;;;;4163451;28;20060;-83
2022/04/16 06:09:21;;;;;;;2.00;1.80;;;9.10;99.90;;;;;;4165801;28;19925;-83
2022/04/16 06:11:28;;;;;;;6.18;1.92;;;9.20;99.90;;;;;;4162448;28;20051;-86
2022/04/16 06:13:30;;;;;;;1.70;1.70;;;9.30;99.90;;;;;;4165644;28;20080;-84
2022/04/16 06:15:32;;;;;;;;;;;9.40;99.90;;;;;;4159150;28;20057;-83
2022/04/16 06:17:35;;;;;;;3.13;1.58;;;9.60;99.90;;;;;;4160220;28;19920;-83
2022/04/16 06:19:37;;;;;;;1.75;1.38;;;9.90;99.90;;;;;;4158546;28;20075;-84
2022/04/16 06:21:39;;;;;;;1.27;1.23;;;10.10;99.90;;;;;;4173757;28;20037;-82
2022/04/16 06:23:41;;;;;;;1.35;1.35;;;10.30;99.90;;;;;;4158281;28;20049;-82
2022/04/16 06:25:43;;;;;;;1.10;1.10;;;10.40;98.90;;;;;;4158036;28;20092;-82
2022/04/16 06:27:45;;;;;;;1.10;1.10;;;10.40;99.60;;;;;;4160656;28;20548;-82
2022/04/16 06:29:47;;;;;;;1.20;1.20;;;10.40;99.90;;;;;;4159844;28;20045;-82
2022/04/16 06:31:49;;;;;;;1.75;1.40;;;10.50;99.90;;;;;;4159368;28;20485;-82
2022/04/16 06:33:51;;;;;;;1.65;1.30;;;10.40;99.90;;;;;;4160389;28;20057;-82
2022/04/16 06:35:53;;;;;;;3.00;1.10;;;10.60;99.90;;;;;;4160136;28;20056;-82
2022/04/16 06:37:55;;;;;;;3.25;1.80;;;10.70;99.90;;;;;;4160542;28;20401;-82
2022/04/16 06:39:57;;;;;;;1.63;1.52;;;10.60;99.90;;;;;;4158777;28;20064;-82
2022/04/16 06:41:59;;;;;;;5.53;1.20;;;10.70;99.90;;;;;;4161507;28;20056;-82
2022/04/16 06:44:02;;;;;;;5.15;1.30;;;10.80;99.90;;;;;;4173205;28;20049;-82
2022/04/16 06:46:04;;;;;;;1.98;1.63;;;10.90;99.90;;;;;;4163789;28;20091;-82
2022/04/16 06:48:07;;;;;;;1.27;1.27;;;10.90;99.90;;;;;;4169963;28;20049;-82
2022/04/16 06:50:09;;;;;;;1.10;1.10;;;11.00;99.90;;;;;;4173187;28;20089;-82
2022/04/16 06:52:12;;;;;;;1.10;1.00;;;11.10;99.90;;;;;;4162347;28;20565;-82
2022/04/16 06:54:14;;;;;;;2.17;1.00;;;11.40;99.30;;;;;;4161989;28;20045;-82
2022/04/16 06:56:16;;;;;;;1.10;1.10;;;11.70;98.90;;;;;;4163559;28;20417;-82
2022/04/16 06:58:18;;;;;;;1.20;1.20;;;12.00;98.80;;;;;;4163557;28;20136;-82
2022/04/16 07:00:20;;;;;;;1.63;1.00;;;12.20;99.00;;;;;;4163100;28;20121;-82
2022/04/16 07:02:22;;;;;;;3.85;1.23;;;12.50;98.70;;;;;;4162367;28;20080;-82
2022/04/16 07:04:25;;;;;;;1.20;1.20;;;12.50;98.60;;;;;;4164424;28;20041;-82
2022/04/16 07:06:27;;;;;;;2.38;1.88;;;12.70;99.20;;;;;;4163245;28;20127;-82
2022/04/16 07:08:29;;;;;;;2.17;1.38;;;12.70;97.30;;;;;;4170023;28;20061;-82
2022/04/16 07:10:31;;;;;;;1.20;1.10;;;13.00;98.00;;;;;;4162973;28;20116;-82
2022/04/16 07:12:34;;;;;;;0.90;0.90;;;13.30;97.10;;;;;;4176548;28;20053;-82
2022/04/16 07:14:40;;;;;;;2.05;1.20;;;13.60;97.70;;;;;;4161848;28;20049;-83
2022/04/16 07:16:42;;;;;;;1.60;1.17;;;14.20;96.80;;;;;;4162860;28;20064;-83
2022/04/16 07:18:44;;;;;;;3.05;1.38;;;14.60;96.90;;;;;;4162710;28;20111;-83
2022/04/16 07:20:47;;;;;;;1.30;1.23;;;15.00;96.60;;;;;;4164468;28;20465;-83
2022/04/16 07:22:49;;;;;;;1.20;1.20;;;15.20;97.90;;;;;;4166191;28;20047;-83
2022/04/16 07:24:51;;;;;;;1.10;1.10;;;15.10;96.10;;;;;;4172113;28;20140;-83
2022/04/16 07:26:54;;;;;;;1.40;1.30;;;15.30;95.80;;;;;;4162766;28;20045;-83
2022/04/16 07:28:56;;;;;;;1.98;1.20;;;15.70;97.00;;;;;;4164729;28;20128;-83
2022/04/16 07:30:58;;;;;;;1.35;1.30;;;15.90;96.40;;;;;;4178077;28;20049;-83
2022/04/16 07:33:00;;;;;;;1.25;1.00;;;15.90;95.70;;;;;;4163239;28;20057;-83
2022/04/16 07:35:03;;;;;;;3.70;1.27;;;15.90;95.30;;;;;;4163720;28;20060;-83
2022/04/16 07:37:05;;;;;;;;;;;15.90;96.50;;;;;;4174836;28;20497;-83
2022/04/16 07:39:07;;;;;;;1.17;1.10;;;16.30;95.50;;;;;;4161799;28;19924;-83
2022/04/16 07:41:11;;;;;;;1.20;1.20;;;16.40;95.20;;;;;;4162785;28;20045;-83
2022/04/16 07:43:15;;;;;;;1.05;1.05;;;16.60;95.80;;;;;;4164250;28;20045;-83
2022/04/16 07:45:46;;;;;;;1.00;1.00;;;16.80;95.60;;;;;;4173748;28;20049;-83
2022/04/16 07:47:48;;;;;;;0.90;0.90;;;16.80;95.50;;;;;;4177006;28;20865;-83
2022/04/16 07:49:50;;;;;;;4.78;1.85;;;16.90;95.60;;;;;;4163614;28;20766;-83
2022/04/16 07:51:52;;;;;;;1.75;0.93;;;17.10;97.40;;;;;;4170131;28;20096;-83
2022/04/16 07:53:58;;;;;;;0.90;0.90;;;17.40;94.80;;;;;;4159648;28;20054;-83
2022/04/16 07:56:00;;;;;;;0.90;0.90;;;17.50;94.80;;;;;;4158781;28;20049;-84
2022/04/16 07:58:03;;;;;;;1.00;0.90;;;17.70;94.60;;;;;;4160295;28;20057;-83
2022/04/16 08:00:06;;;;;;;1.95;0.90;;;17.70;93.40;;;;;;4171806;28;20052;-84
2022/04/16 08:02:09;;;;;;;2.78;0.90;;;17.90;93.30;;;;;;4158287;28;20058;-84
2022/04/16 08:04:12;;;;;;;1.33;1.23;;;18.00;93.60;;;;;;4171861;28;20789;-84
2022/04/16 08:06:14;;;;;;;0.90;0.90;;;18.10;93.60;;;;;;4150451;28;20051;-83
2022/04/16 08:08:16;;;;;;;1.88;1.25;;;18.30;92.60;;;;;;4166804;28;20037;-83
2022/04/16 08:10:18;;;;;;;1.58;0.90;;;18.40;92.10;;;;;;4145823;28;20050;-84
2022/04/16 08:12:20;;;;;;;;;;;18.40;92.40;;;;;;4155101;28;20056;-84
2022/04/16 08:14:23;;;;;;;0.90;0.90;;;18.40;91.30;;;;;;4159177;28;19924;-84
2022/04/16 08:16:25;;;;;;;1.23;0.80;;;18.50;92.40;;;;;;4174780;28;20504;-83
2022/04/16 08:18:27;;;;;;;;;;;18.90;92.60;;;;;;4175489;28;20049;-84
2022/04/16 08:20:29;;;;;;;1.23;0.80;;;19.00;91.90;;;;;;4174464;28;19927;-84
2022/04/16 08:22:38;;;;;;;1.35;1.08;;;19.00;90.80;;;;;;4160044;28;20499;-83
2022/04/16 08:24:41;;;;;;;0.80;0.80;;;19.10;90.90;;;;;;4164770;28;20056;-84
2022/04/16 08:26:43;;;;;;;1.45;0.90;;;19.30;91.50;;;;;;4174919;28;20508;-84
2022/04/16 08:28:45;;;;;;;1.05;1.02;;;19.30;91.10;;;;;;4162893;28;20046;-84
2022/04/16 08:30:47;;;;;;;2.10;0.90;;;19.30;91.20;;;;;;4177505;28;20130;-84
2022/04/16 08:32:49;;;;;;;0.88;0.80;;;19.20;90.80;;;;;;4162636;28;20053;-84
2022/04/16 08:34:51;;;;;;;0.90;0.80;;;19.30;91.00;;;;;;4162401;28;20080;-83
2022/04/16 08:36:54;;;;;;;0.98;0.70;;;19.40;91.00;;;;;;4161911;28;20057;-84
2022/04/16 08:38:56;;;;;;;0.70;0.70;;;19.40;90.20;;;;;;4163587;28;20041;-84
2022/04/16 08:41:00;;;;;;;1.85;0.80;;;19.30;86.90;;;;;;4160703;28;20053;-84
2022/04/16 08:43:03;;;;;;;1.33;0.73;;;19.40;88.00;;;;;;4165492;28;20084;-84
2022/04/16 08:45:08;;;;;;;2.72;0.90;;;19.50;88.50;;;;;;4173605;28;20045;-84
2022/04/16 08:47:11;;;;;;;2.78;0.80;;;19.70;88.20;;;;;;4160494;28;20041;-84
2022/04/16 08:49:14;;;;;;;0.80;0.80;;;19.80;86.60;;;;;;4161722;28;20071;-84
2022/04/16 08:51:16;;;;;;;0.80;0.80;;;19.90;86.30;;;;;;4176142;28;20079;-84
2022/04/16 08:53:20;;;;;;;1.65;0.77;;;19.70;84.40;;;;;;4162883;28;20050;-84
2022/04/16 08:55:22;;;;;;;0.80;0.80;;;19.90;85.70;;;;;;4165308;28;20055;-84
2022/04/16 08:57:25;;;;;;;0.93;0.70;;;20.20;85.50;;;;;;4167927;28;20663;-84
2022/04/16 08:59:27;;;;;;;;;;;20.50;88.00;;;;;;4163621;28;20068;-84
2022/04/16 09:01:30;;;;;;;0.70;0.70;;;20.60;83.90;;;;;;4161502;28;19921;-85
2022/04/16 09:03:36;;;;;;;0.70;0.70;;;20.80;82.60;;;;;;4161844;28;20493;-84
2022/04/16 09:05:39;;;;;;;0.88;0.88;;;21.00;84.10;;;;;;4168423;28;20041;-84
2022/04/16 09:07:50;;;;;;;0.75;0.75;;;20.50;78.00;;;;;;4165083;28;20041;-83
2022/04/16 09:09:52;;;;;;;0.82;0.70;;;20.30;79.30;;;;;;4160347;28;20099;-84
2022/04/16 09:11:55;;;;;;;0.80;0.80;;;20.40;80.70;;;;;;4169129;28;20055;-84
2022/04/16 09:13:57;;;;;;;0.93;0.70;;;20.70;83.20;;;;;;4162973;28;20579;-85
2022/04/16 09:16:03;;;;;;;0.70;0.70;;;20.70;81.90;;;;;;4167802;28;20081;-84
2022/04/16 09:18:07;;;;;;;1.65;0.70;;;21.00;79.30;;;;;;4164260;28;20127;-84
2022/04/16 09:20:12;;;;;;;6.32;0.70;;;21.00;80.90;;;;;;4161201;28;20049;-85
2022/04/16 09:22:29;;;;;;;1.08;0.80;;;21.20;77.90;;;;;;4167307;28;20528;-85
2022/04/16 09:24:49;;;;;;;6.85;0.70;;;21.50;78.80;;;;;;4160304;28;20049;-84
2022/04/16 09:26:51;;;;;;;0.70;0.70;;;21.30;76.00;;;;;;4161441;28;20524;-82
2022/04/16 09:28:54;;;;;;;1.65;0.75;;;21.40;78.90;;;;;;4159384;28;20041;-82
2022/04/16 09:30:56;;;;;;;0.60;0.60;;;21.70;79.00;;;;;;4169851;28;20417;-82
2022/04/16 09:33:01;;;;;;;0.65;0.65;;;21.60;76.40;;;;;;4164697;28;20115;-83
2022/04/16 09:35:03;;;;;;;2.40;0.57;;;21.90;76.70;;;;;;4169093;28;20049;-83
2022/04/16 09:37:11;;;;;;;;;;;21.90;74.50;;;;;;4162037;28;20057;-83
2022/04/16 09:39:14;;;;;;;0.70;0.70;;;22.00;78.60;;;;;;4167743;28;19929;-82
2022/04/16 09:41:16;;;;;;;2.20;0.70;;;21.80;74.90;;;;;;4165955;28;20525;-83
2022/04/16 09:43:18;;;;;;;0.73;0.73;;;21.40;74.50;;;;;;4175079;28;20045;-83
2022/04/16 09:45:23;;;;;;;1.38;0.70;;;21.80;75.30;;;;;;4159334;28;20076;-82
2022/04/16 09:47:26;;;;;;;0.93;0.70;;;22.00;77.70;;;;;;4175706;28;20049;-83
2022/04/16 09:49:33;;;;;;;2.67;0.70;;;22.40;77.20;;;;;;4162158;28;20119;-83
2022/04/16 09:51:35;;;;;;;0.60;0.60;;;22.70;73.40;;;;;;4165382;28;20045;-83
2022/04/16 09:53:40;;;;;;;0.60;0.60;;;22.40;73.90;;;;;;4164862;28;20107;-83
2022/04/16 09:55:43;;;;;;;1.73;0.73;;;22.50;73.00;;;;;;4167601;28;20045;-83
2022/04/16 09:57:48;;;;;;;1.35;0.68;;;22.20;73.20;;;;;;4168510;28;20075;-82
2022/04/16 09:59:57;;;;;;;0.70;0.63;;;22.40;73.10;;;;;;4166621;28;20053;-83
2022/04/16 10:02:02;;;;;;;2.55;0.90;;;22.40;73.30;;;;;;4160574;28;20488;-83
2022/04/16 10:04:06;;;;;;;0.60;0.60;;;22.70;78.20;;;;;;4176274;28;20135;-83
2022/04/16 10:06:09;;;;;;;0.60;0.60;;;22.70;72.80;;;;;;4159639;28;20440;-82
2022/04/16 10:08:13;;;;;;;0.85;0.80;;;22.80;74.20;;;;;;4170570;28;20077;-83
2022/04/16 10:10:18;;;;;;;3.50;0.70;;;22.40;71.50;;;;;;4162127;28;20053;-83
2022/04/16 10:14:54;;;;;;;3.33;0.70;;;22.80;75.70;;;;;;4162921;28;20060;-83
2022/04/16 10:17:15;;;;;;;3.85;0.60;;;22.80;74.40;;;;;;4167125;28;20092;-82
2022/04/16 10:19:17;;;;;;;2.13;0.70;;;22.90;76.30;;;;;;4161932;28;20576;-82
2022/04/16 10:21:20;;;;;;;0.75;0.70;;;22.90;72.40;;;;;;4160073;28;20418;-83
2022/04/16 10:23:27;;;;;;;1.58;0.60;;;22.60;71.70;;;;;;4160750;28;20053;-83
2022/04/16 10:25:42;;;;;;;0.60;0.60;;;22.20;71.30;;;;;;4167975;28;20045;-83
2022/04/16 10:27:44;;;;;;;1.13;0.70;;;22.10;72.20;;;;;;4163114;28;20077;-83
2022/04/16 10:29:52;;;;;;;1.30;0.70;;;22.10;71.10;;;;;;4172227;28;20099;-83
2022/04/16 10:31:55;;;;;;;1.02;0.60;;;21.90;73.40;;;;;;4160842;28;20063;-83
2022/04/16 10:34:05;;;;;;;1.55;0.60;;;22.00;71.20;;;;;;4165245;28;20540;-83
2022/04/16 10:36:10;;;;;;;0.88;0.80;;;22.30;71.80;;;;;;4173381;28;20534;-83
2022/04/16 10:38:22;;;;;;;0.60;0.60;;;22.00;71.60;;;;;;4163839;28;20504;-82
2022/04/16 10:40:25;;;;;;;1.33;0.60;;;22.10;72.90;;;;;;4166739;28;20143;-83
2022/04/16 10:42:32;;;;;;;0.68;0.60;;;22.50;72.70;;;;;;4171771;28;20052;-83
2022/04/16 10:44:54;;;;;;;0.60;0.60;;;22.30;72.30;;;;;;4162437;28;20045;-82
2022/04/16 10:46:59;;;;;;;0.50;0.50;;;22.70;72.70;;;;;;4164023;28;20057;-83
2022/04/16 10:49:06;;;;;;;0.60;0.60;;;23.00;77.40;;;;;;4174527;28;20132;-83
2022/04/16 10:51:09;;;;;;;1.92;0.60;;;23.10;73.40;;;;;;4162325;28;20041;-82
2022/04/16 10:53:11;;;;;;;1.55;0.60;;;22.90;69.70;;;;;;4160635;28;20080;-83
2022/04/16 10:55:13;;;;;;;1.65;0.77;;;22.70;71.40;;;;;;4160647;28;20128;-83
2022/04/16 10:57:22;;;;;;;2.45;0.93;;;22.70;71.60;;;;;;4160799;28;20087;-83
2022/04/16 10:59:41;;;;;;;2.35;1.00;;;22.20;69.80;;;;;;4161688;28;20057;-83
2022/04/16 11:01:53;;;;;;;1.98;0.70;;;22.10;71.30;;;;;;4159279;28;20525;-83
2022/04/16 11:03:57;;;;;;;0.63;0.63;;;22.20;71.40;;;;;;4172641;28;20095;-83